Aérodrome :
LOGIN :

S'inscrire | Disclaimer

   EN    FR    IT 

 










Légende :    VFR   VFR Marginal   IFR   IFR Intensif   IFR Très Intensif
Visi : 
Plafond : 
>= 8 km
>= 3000ft
5 à 8 km
1000 à 3000 ft
1500m à 5 km
500 à 1000 ft
800 à 1500m
200 à 500 ft
< 800m
< 200 ft
Symboles :   Orages  Brouillard  Fortes neiges  Fortes précipitations  Vent > 20 kt
SIGMETs :   Divers  Orages  Givrage  Turbulence  Onde Orograph.  Cendres Volcan.






- Altitude de l'aérodrome : 622 ft
- Code IATA : BRS


EGGD - Bristol Int.

DERNIER METAR :
  • 151450Z AUTO 19009KT 9999 SCT030 BKN037 07/03 Q0995

METARs EXPIRÉS :
  • 151420Z AUTO 21008KT 170V250 9999 SCT032 BKN038 07/03 Q0995
  • 151350Z AUTO 22014KT 9999 BKN029 08/03 Q0996
  • 151320Z AUTO 22010KT 9999 SCT033 08/03 Q0996
  • 151250Z AUTO 21011KT 9999 SCT032 07/03 Q0995
  • 151220Z AUTO 21010KT 9999 FEW025 07/04 Q0995
  • 151150Z AUTO 21009KT 9999 SCT025 BKN031 06/04 Q0996

TAF TAF EGGD
Valide du 15 à 12h jusqu'au 16 à 12h UTC


151057Z 1512/1612 20010KT 9999 FEW010 SCT030
TEMPO 1512/1523 24015G25KT 6000 SHRA BKN010
PROB30
TEMPO 1518/1522 4000 +SHRA BKN008 BKN020CB
ATIS : +44 1275 473 666



MET'MAP, la Météo Aéronautique d'un coup d'oeil ! - Copyright ORBIFLY Décembre 2007 - Disclaimer

ORBIFLY MET'MAP TEAM :

Programmation & Développement : Alexandra Zaïnal
Sur une idée originale de : Baudouin d'Aumeries
Assistance à la programmation : Marc-Olivier Méhu
Soutien technique & logistique : Manuel Goepfert

Contact : metmap@orbifly.com




SOURCES & CREDITS :

   NOAA